sensor_id;sensor_type;location;lat;lon;timestamp;P1;durP1;ratioP1;P2;durP2;ratioP2
43154;SDS011;34212;51.018;13.586;2023-04-22T05:02:56;14.50;;;11.43;;
43154;SDS011;34212;51.018;13.586;2023-04-22T05:07:58;19.43;;;10.40;;
43154;SDS011;34212;51.018;13.586;2023-04-22T05:13:00;12.55;;;10.48;;
43154;SDS011;34212;51.018;13.586;2023-04-22T05:18:05;13.20;;;10.27;;
43154;SDS011;34212;51.018;13.586;2023-04-22T05:23:07;13.77;;;10.02;;
43154;SDS011;34212;51.018;13.586;2023-04-22T05:28:08;12.10;;;9.18;;
43154;SDS011;34212;51.018;13.586;2023-04-22T05:33:18;14.52;;;10.45;;
43154;SDS011;34212;51.018;13.586;2023-04-22T05:38:19;14.57;;;10.50;;
43154;SDS011;34212;51.018;13.586;2023-04-22T05:43:22;15.63;;;10.35;;
43154;SDS011;34212;51.018;13.586;2023-04-22T05:48:33;17.63;;;11.10;;
43154;SDS011;34212;51.018;13.586;2023-04-22T05:53:40;11.60;;;9.65;;
43154;SDS011;34212;51.018;13.586;2023-04-22T06:03:50;12.38;;;10.13;;
43154;SDS011;34212;51.018;13.586;2023-04-22T06:08:52;21.13;;;10.50;;
43154;SDS011;34212;51.018;13.586;2023-04-22T06:13:54;13.43;;;10.48;;
43154;SDS011;34212;51.018;13.586;2023-04-22T06:18:55;12.40;;;9.47;;
43154;SDS011;34212;51.018;13.586;2023-04-22T06:24:01;14.32;;;8.57;;
43154;SDS011;34212;51.018;13.586;2023-04-22T06:29:04;14.57;;;9.68;;
43154;SDS011;34212;51.018;13.586;2023-04-22T06:34:07;10.70;;;9.23;;
43154;SDS011;34212;51.018;13.586;2023-04-22T06:39:09;13.43;;;9.60;;
43154;SDS011;34212;51.018;13.586;2023-04-22T06:44:21;11.90;;;9.18;;
43154;SDS011;34212;51.018;13.586;2023-04-22T06:49:52;16.90;;;10.70;;
43154;SDS011;34212;51.018;13.586;2023-04-22T06:55:16;18.45;;;10.45;;
43154;SDS011;34212;51.018;13.586;2023-04-22T07:00:18;10.77;;;9.45;;
43154;SDS011;34212;51.018;13.586;2023-04-22T07:05:20;13.40;;;10.20;;
43154;SDS011;34212;51.018;13.586;2023-04-22T07:10:23;12.48;;;9.48;;
43154;SDS011;34212;51.018;13.586;2023-04-22T07:15:57;14.30;;;9.25;;
43154;SDS011;34212;51.018;13.586;2023-04-22T07:20:58;9.95;;;8.65;;
43154;SDS011;34212;51.018;13.586;2023-04-22T07:26:00;12.20;;;9.70;;
43154;SDS011;34212;51.018;13.586;2023-04-22T07:31:01;12.15;;;8.55;;
43154;SDS011;34212;51.018;13.586;2023-04-22T07:36:03;16.13;;;8.57;;
43154;SDS011;34212;51.018;13.586;2023-04-22T07:41:05;12.65;;;7.65;;
43154;SDS011;34212;51.018;13.586;2023-04-22T07:46:07;12.23;;;7.85;;
43154;SDS011;34212;51.018;13.586;2023-04-22T07:51:08;9.10;;;7.80;;
43154;SDS011;34212;51.018;13.586;2023-04-22T07:56:10;12.23;;;8.20;;
43154;SDS011;34212;51.018;13.586;2023-04-22T08:01:11;10.13;;;7.30;;
43154;SDS011;34212;51.018;13.586;2023-04-22T08:06:13;11.90;;;8.43;;
43154;SDS011;34212;51.018;13.586;2023-04-22T08:11:14;17.00;;;8.20;;
43154;SDS011;34212;51.018;13.586;2023-04-22T08:16:16;11.75;;;8.82;;
43154;SDS011;34212;51.018;13.586;2023-04-22T08:21:18;9.70;;;7.63;;
43154;SDS011;34212;51.018;13.586;2023-04-22T08:26:19;10.13;;;7.85;;
43154;SDS011;34212;51.018;13.586;2023-04-22T08:31:21;13.47;;;6.60;;
43154;SDS011;34212;51.018;13.586;2023-04-22T08:36:23;8.37;;;7.13;;
43154;SDS011;34212;51.018;13.586;2023-04-22T08:41:26;8.40;;;6.80;;
43154;SDS011;34212;51.018;13.586;2023-04-22T08:46:27;10.30;;;5.67;;
43154;SDS011;34212;51.018;13.586;2023-04-22T08:51:31;8.52;;;4.40;;
43154;SDS011;34212;51.018;13.586;2023-04-22T08:56:35;6.03;;;4.20;;
43154;SDS011;34212;51.018;13.586;2023-04-22T09:01:41;6.88;;;4.00;;
43154;SDS011;34212;51.018;13.586;2023-04-22T09:06:43;7.50;;;3.63;;
43154;SDS011;34212;51.018;13.586;2023-04-22T09:11:44;11.50;;;3.83;;
43154;SDS011;34212;51.018;13.586;2023-04-22T09:16:46;6.30;;;3.57;;
43154;SDS011;34212;51.018;13.586;2023-04-22T09:26:54;7.95;;;4.07;;
43154;SDS011;34212;51.018;13.586;2023-04-22T09:31:57;11.93;;;3.72;;
43154;SDS011;34212;51.018;13.586;2023-04-22T09:36:58;6.17;;;4.00;;
43154;SDS011;34212;51.018;13.586;2023-04-22T09:42:00;6.40;;;4.07;;
43154;SDS011;34212;51.018;13.586;2023-04-22T09:47:02;4.70;;;3.47;;
43154;SDS011;34212;51.018;13.586;2023-04-22T09:52:04;6.20;;;4.40;;
43154;SDS011;34212;51.018;13.586;2023-04-22T09:57:06;5.32;;;4.13;;
43154;SDS011;34212;51.018;13.586;2023-04-22T10:02:13;7.47;;;4.40;;
43154;SDS011;34212;51.018;13.586;2023-04-22T10:07:15;9.18;;;5.00;;
43154;SDS011;34212;51.018;13.586;2023-04-22T10:12:17;11.18;;;4.50;;
43154;SDS011;34212;51.018;13.586;2023-04-22T10:17:30;6.95;;;4.20;;
43154;SDS011;34212;51.018;13.586;2023-04-22T10:22:34;11.38;;;4.22;;
43154;SDS011;34212;51.018;13.586;2023-04-22T10:27:35;7.05;;;4.05;;
43154;SDS011;34212;51.018;13.586;2023-04-22T10:32:39;6.30;;;4.32;;
43154;SDS011;34212;51.018;13.586;2023-04-22T10:37:41;7.68;;;3.85;;
43154;SDS011;34212;51.018;13.586;2023-04-22T10:42:49;7.43;;;3.85;;
43154;SDS011;34212;51.018;13.586;2023-04-22T10:47:52;12.13;;;4.13;;
43154;SDS011;34212;51.018;13.586;2023-04-22T10:52:55;8.52;;;3.60;;
43154;SDS011;34212;51.018;13.586;2023-04-22T10:57:58;8.70;;;3.55;;
43154;SDS011;34212;51.018;13.586;2023-04-22T11:03:07;7.90;;;3.80;;
43154;SDS011;34212;51.018;13.586;2023-04-22T11:08:12;10.60;;;3.90;;
43154;SDS011;34212;51.018;13.586;2023-04-22T11:13:17;5.97;;;3.70;;
43154;SDS011;34212;51.018;13.586;2023-04-22T11:18:24;8.35;;;3.45;;
43154;SDS011;34212;51.018;13.586;2023-04-22T11:23:27;5.32;;;3.53;;
43154;SDS011;34212;51.018;13.586;2023-04-22T11:28:29;7.97;;;3.78;;
43154;SDS011;34212;51.018;13.586;2023-04-22T11:33:31;10.32;;;3.80;;
43154;SDS011;34212;51.018;13.586;2023-04-22T11:38:34;13.13;;;3.90;;
43154;SDS011;34212;51.018;13.586;2023-04-22T11:43:44;6.65;;;3.88;;
43154;SDS011;34212;51.018;13.586;2023-04-22T11:48:47;8.25;;;3.95;;
43154;SDS011;34212;51.018;13.586;2023-04-22T11:53:49;6.20;;;4.50;;
43154;SDS011;34212;51.018;13.586;2023-04-22T11:58:51;5.20;;;3.50;;
43154;SDS011;34212;51.018;13.586;2023-04-22T12:03:58;6.13;;;3.67;;
43154;SDS011;34212;51.018;13.586;2023-04-22T12:09:01;11.98;;;4.65;;
43154;SDS011;34212;51.018;13.586;2023-04-22T12:14:08;9.32;;;4.25;;
43154;SDS011;34212;51.018;13.586;2023-04-22T12:19:11;8.65;;;4.05;;
43154;SDS011;34212;51.018;13.586;2023-04-22T12:24:13;7.32;;;4.55;;
43154;SDS011;34212;51.018;13.586;2023-04-22T12:29:15;7.38;;;4.47;;
43154;SDS011;34212;51.018;13.586;2023-04-22T12:34:16;10.27;;;4.60;;
43154;SDS011;34212;51.018;13.586;2023-04-22T12:39:18;10.38;;;4.65;;
43154;SDS011;34212;51.018;13.586;2023-04-22T12:44:19;12.13;;;4.53;;
43154;SDS011;34212;51.018;13.586;2023-04-22T12:49:24;6.30;;;4.28;;
43154;SDS011;34212;51.018;13.586;2023-04-22T12:54:26;6.60;;;4.13;;
43154;SDS011;34212;51.018;13.586;2023-04-22T12:59:27;9.23;;;3.58;;
43154;SDS011;34212;51.018;13.586;2023-04-22T13:04:29;6.30;;;3.33;;
43154;SDS011;34212;51.018;13.586;2023-04-22T13:09:30;5.25;;;3.53;;
43154;SDS011;34212;51.018;13.586;2023-04-22T13:14:32;6.25;;;3.70;;
43154;SDS011;34212;51.018;13.586;2023-04-22T13:19:33;7.15;;;3.92;;
43154;SDS011;34212;51.018;13.586;2023-04-22T13:24:35;7.90;;;3.70;;
43154;SDS011;34212;51.018;13.586;2023-04-22T13:34:38;8.32;;;3.63;;
43154;SDS011;34212;51.018;13.586;2023-04-22T13:39:40;6.47;;;3.90;;
43154;SDS011;34212;51.018;13.586;2023-04-22T13:44:42;5.97;;;3.58;;
43154;SDS011;34212;51.018;13.586;2023-04-22T13:49:43;6.50;;;3.45;;
43154;SDS011;34212;51.018;13.586;2023-04-22T13:54:45;4.78;;;3.63;;
43154;SDS011;34212;51.018;13.586;2023-04-22T13:59:47;4.93;;;3.78;;
43154;SDS011;34212;51.018;13.586;2023-04-22T14:04:49;6.60;;;3.80;;
43154;SDS011;34212;51.018;13.586;2023-04-22T14:14:52;7.80;;;4.20;;
43154;SDS011;34212;51.018;13.586;2023-04-22T14:19:53;7.25;;;4.57;;
43154;SDS011;34212;51.018;13.586;2023-04-22T14:24:55;6.55;;;4.35;;
43154;SDS011;34212;51.018;13.586;2023-04-22T14:29:57;8.90;;;5.07;;
43154;SDS011;34212;51.018;13.586;2023-04-22T14:34:58;5.90;;;4.18;;
43154;SDS011;34212;51.018;13.586;2023-04-22T14:40:00;14.38;;;5.38;;
43154;SDS011;34212;51.018;13.586;2023-04-22T14:45:01;7.80;;;4.90;;
43154;SDS011;34212;51.018;13.586;2023-04-22T14:50:03;10.57;;;4.82;;
43154;SDS011;34212;51.018;13.586;2023-04-22T14:55:05;7.45;;;4.25;;
43154;SDS011;34212;51.018;13.586;2023-04-22T15:00:25;5.70;;;4.75;;
43154;SDS011;34212;51.018;13.586;2023-04-22T15:05:27;6.85;;;4.93;;
43154;SDS011;34212;51.018;13.586;2023-04-22T15:10:29;5.43;;;4.82;;
43154;SDS011;34212;51.018;13.586;2023-04-22T15:15:30;9.68;;;5.18;;
43154;SDS011;34212;51.018;13.586;2023-04-22T15:20:32;10.38;;;5.80;;
43154;SDS011;34212;51.018;13.586;2023-04-22T15:25:33;9.70;;;4.40;;
43154;SDS011;34212;51.018;13.586;2023-04-22T15:30:35;7.15;;;4.53;;
43154;SDS011;34212;51.018;13.586;2023-04-22T15:40:38;7.68;;;4.90;;
43154;SDS011;34212;51.018;13.586;2023-04-22T15:45:40;10.48;;;4.68;;
43154;SDS011;34212;51.018;13.586;2023-04-22T15:50:42;6.85;;;4.85;;
43154;SDS011;34212;51.018;13.586;2023-04-22T15:55:43;7.22;;;4.43;;
43154;SDS011;34212;51.018;13.586;2023-04-22T16:00:47;6.63;;;4.60;;
43154;SDS011;34212;51.018;13.586;2023-04-22T16:05:48;6.07;;;4.40;;
43154;SDS011;34212;51.018;13.586;2023-04-22T16:10:50;7.38;;;4.70;;
43154;SDS011;34212;51.018;13.586;2023-04-22T16:15:51;9.40;;;4.82;;
43154;SDS011;34212;51.018;13.586;2023-04-22T16:20:53;8.68;;;4.30;;
43154;SDS011;34212;51.018;13.586;2023-04-22T16:25:54;9.90;;;4.45;;
43154;SDS011;34212;51.018;13.586;2023-04-22T16:30:56;6.35;;;4.00;;
43154;SDS011;34212;51.018;13.586;2023-04-22T16:35:57;10.45;;;4.47;;
43154;SDS011;34212;51.018;13.586;2023-04-22T16:40:59;8.23;;;4.30;;
43154;SDS011;34212;51.018;13.586;2023-04-22T16:46:00;6.35;;;4.10;;
43154;SDS011;34212;51.018;13.586;2023-04-22T16:56:04;8.57;;;4.70;;
43154;SDS011;34212;51.018;13.586;2023-04-22T17:06:07;7.30;;;4.80;;
43154;SDS011;34212;51.018;13.586;2023-04-22T17:11:09;11.45;;;4.72;;
43154;SDS011;34212;51.018;13.586;2023-04-22T17:16:11;12.10;;;5.38;;
43154;SDS011;34212;51.018;13.586;2023-04-22T17:21:12;10.50;;;5.35;;
43154;SDS011;34212;51.018;13.586;2023-04-22T17:26:14;7.95;;;5.68;;
43154;SDS011;34212;51.018;13.586;2023-04-22T17:31:16;10.07;;;5.55;;
43154;SDS011;34212;51.018;13.586;2023-04-22T17:36:18;11.80;;;5.70;;
43154;SDS011;34212;51.018;13.586;2023-04-22T17:41:20;11.77;;;5.88;;
43154;SDS011;34212;51.018;13.586;2023-04-22T17:46:22;8.95;;;5.32;;
43154;SDS011;34212;51.018;13.586;2023-04-22T17:51:23;8.88;;;5.55;;
43154;SDS011;34212;51.018;13.586;2023-04-22T17:56:25;12.25;;;6.20;;
43154;SDS011;34212;51.018;13.586;2023-04-22T18:01:26;7.72;;;5.57;;
43154;SDS011;34212;51.018;13.586;2023-04-22T18:06:29;7.78;;;5.47;;
43154;SDS011;34212;51.018;13.586;2023-04-22T18:11:32;10.57;;;5.30;;
43154;SDS011;34212;51.018;13.586;2023-04-22T18:16:34;8.10;;;4.90;;
43154;SDS011;34212;51.018;13.586;2023-04-22T18:21:36;8.40;;;5.60;;
43154;SDS011;34212;51.018;13.586;2023-04-22T18:26:46;10.70;;;5.50;;
43154;SDS011;34212;51.018;13.586;2023-04-22T18:31:49;7.00;;;5.10;;
43154;SDS011;34212;51.018;13.586;2023-04-22T18:36:50;9.20;;;5.30;;
43154;SDS011;34212;51.018;13.586;2023-04-22T18:41:52;8.63;;;5.50;;
43154;SDS011;34212;51.018;13.586;2023-04-22T18:46:54;7.57;;;5.32;;
43154;SDS011;34212;51.018;13.586;2023-04-22T18:51:55;8.80;;;5.20;;
43154;SDS011;34212;51.018;13.586;2023-04-22T18:56:57;10.20;;;5.30;;
43154;SDS011;34212;51.018;13.586;2023-04-22T19:01:59;8.63;;;5.37;;
43154;SDS011;34212;51.018;13.586;2023-04-22T19:07:00;9.70;;;5.85;;
43154;SDS011;34212;51.018;13.586;2023-04-22T19:12:02;8.90;;;5.80;;
43154;SDS011;34212;51.018;13.586;2023-04-22T19:17:04;8.48;;;5.70;;
43154;SDS011;34212;51.018;13.586;2023-04-22T19:22:05;13.07;;;5.90;;
43154;SDS011;34212;51.018;13.586;2023-04-22T19:27:07;8.47;;;5.67;;
43154;SDS011;34212;51.018;13.586;2023-04-22T19:32:12;8.57;;;6.45;;
43154;SDS011;34212;51.018;13.586;2023-04-22T19:37:14;12.23;;;6.57;;
43154;SDS011;34212;51.018;13.586;2023-04-22T19:42:16;11.38;;;6.88;;
43154;SDS011;34212;51.018;13.586;2023-04-22T19:52:20;7.03;;;6.32;;
43154;SDS011;34212;51.018;13.586;2023-04-22T19:57:22;9.15;;;6.40;;
43154;SDS011;34212;51.018;13.586;2023-04-22T20:02:24;10.40;;;6.30;;
43154;SDS011;34212;51.018;13.586;2023-04-22T20:07:26;7.63;;;5.93;;
43154;SDS011;34212;51.018;13.586;2023-04-22T20:12:28;8.02;;;5.75;;
43154;SDS011;34212;51.018;13.586;2023-04-22T20:17:31;11.20;;;7.07;;
43154;SDS011;34212;51.018;13.586;2023-04-22T20:22:35;11.80;;;6.95;;
43154;SDS011;34212;51.018;13.586;2023-04-22T20:27:38;8.73;;;6.55;;
43154;SDS011;34212;51.018;13.586;2023-04-22T20:32:40;8.98;;;6.15;;
43154;SDS011;34212;51.018;13.586;2023-04-22T20:37:43;10.63;;;6.07;;
43154;SDS011;34212;51.018;13.586;2023-04-22T20:42:46;10.45;;;6.60;;
43154;SDS011;34212;51.018;13.586;2023-04-22T20:47:48;10.40;;;5.68;;
43154;SDS011;34212;51.018;13.586;2023-04-22T20:52:49;7.25;;;5.45;;
43154;SDS011;34212;51.018;13.586;2023-04-22T20:57:52;9.65;;;5.20;;
43154;SDS011;34212;51.018;13.586;2023-04-22T21:02:53;9.18;;;4.90;;
43154;SDS011;34212;51.018;13.586;2023-04-22T21:07:56;8.95;;;5.75;;
43154;SDS011;34212;51.018;13.586;2023-04-22T21:13:00;7.55;;;4.80;;
43154;SDS011;34212;51.018;13.586;2023-04-22T21:18:01;7.43;;;5.27;;
43154;SDS011;34212;51.018;13.586;2023-04-22T21:23:05;7.03;;;4.95;;
43154;SDS011;34212;51.018;13.586;2023-04-22T21:28:07;10.82;;;4.72;;
43154;SDS011;34212;51.018;13.586;2023-04-22T21:33:09;8.53;;;4.77;;
43154;SDS011;34212;51.018;13.586;2023-04-22T21:38:11;5.15;;;4.28;;
43154;SDS011;34212;51.018;13.586;2023-04-22T21:43:14;14.52;;;4.68;;
43154;SDS011;34212;51.018;13.586;2023-04-22T21:48:15;10.60;;;4.95;;
43154;SDS011;34212;51.018;13.586;2023-04-22T21:53:17;5.50;;;4.13;;
43154;SDS011;34212;51.018;13.586;2023-04-22T21:58:20;8.10;;;4.60;;
